createdAt,value
2017-06-10T00:01:55.413Z,81.90
2017-06-10T00:04:23.500Z,80.00
2017-06-10T00:06:51.533Z,80.50
2017-06-10T00:09:20.409Z,81.50
2017-06-10T00:11:48.437Z,81.50
2017-06-10T00:14:16.524Z,81.00
2017-06-10T00:16:44.569Z,81.60
2017-06-10T00:19:12.662Z,82.20
2017-06-10T00:21:40.713Z,81.20
2017-06-10T00:24:08.769Z,82.10
2017-06-10T00:26:36.854Z,82.40
2017-06-10T00:29:04.910Z,83.90
2017-06-10T00:31:33.749Z,82.90
2017-06-10T00:34:01.806Z,83.40
2017-06-10T00:36:29.861Z,82.10
2017-06-10T00:38:57.939Z,82.70
2017-06-10T00:41:25.994Z,81.00
2017-06-10T00:43:54.074Z,79.70
2017-06-10T00:46:22.134Z,81.70
2017-06-10T00:48:50.222Z,81.80
2017-06-10T00:51:18.279Z,82.10
2017-06-10T00:53:46.379Z,81.80
2017-06-10T00:56:14.856Z,80.90
2017-06-10T00:58:42.925Z,80.10
2017-06-10T01:01:10.989Z,81.00
2017-06-10T01:03:39.038Z,78.40
2017-06-10T01:06:07.123Z,79.10
2017-06-10T01:08:35.197Z,79.80
2017-06-10T01:13:37.578Z,80.70
2017-06-10T01:16:05.702Z,81.20
2017-06-10T01:18:33.725Z,82.60
2017-06-10T01:21:01.813Z,83.80
2017-06-10T01:23:29.866Z,84.40
2017-06-10T01:25:57.928Z,84.90
2017-06-10T01:28:26.024Z,86.90
2017-06-10T01:30:54.082Z,87.50
2017-06-10T01:33:22.160Z,84.30
2017-06-10T01:35:50.295Z,83.20
2017-06-10T01:38:18.366Z,81.40
2017-06-10T01:40:46.408Z,81.10
2017-06-10T01:43:14.492Z,81.10
2017-06-10T01:45:42.557Z,82.20
2017-06-10T01:48:10.618Z,79.50
2017-06-10T01:50:38.695Z,79.90
2017-06-10T01:53:06.819Z,80.10
2017-06-10T01:55:34.905Z,80.30
2017-06-10T01:58:03.033Z,79.30
2017-06-10T02:00:31.075Z,80.00
2017-06-10T02:02:59.129Z,80.30
2017-06-10T02:05:27.236Z,79.80
2017-06-10T02:07:55.308Z,81.00
2017-06-10T02:10:23.359Z,81.80
2017-06-10T02:12:51.442Z,82.50
2017-06-10T02:15:19.509Z,81.90
2017-06-10T02:17:47.566Z,82.60
2017-06-10T02:20:15.661Z,81.10
2017-06-10T02:22:43.715Z,80.70
2017-06-10T02:25:11.776Z,81.50
2017-06-10T02:27:39.861Z,79.40
2017-06-10T02:30:07.929Z,79.70
2017-06-10T02:32:35.969Z,79.20
2017-06-10T02:35:04.065Z,80.30
2017-06-10T02:37:32.123Z,80.90
2017-06-10T02:40:00.216Z,79.30
2017-06-10T02:42:29.025Z,79.00
2017-06-10T02:44:57.081Z,79.60
2017-06-10T02:47:25.147Z,81.50
2017-06-10T02:49:53.221Z,79.50
2017-06-10T02:52:21.281Z,78.20
2017-06-10T02:54:49.332Z,78.80
2017-06-10T02:57:17.422Z,79.30
2017-06-10T02:59:45.550Z,79.90
2017-06-10T03:02:13.646Z,75.60
2017-06-10T03:04:42.151Z,80.40
2017-06-10T03:07:10.177Z,82.00
2017-06-10T03:09:38.230Z,82.10
2017-06-10T03:12:06.297Z,81.50
2017-06-10T03:14:34.365Z,80.90
2017-06-10T03:17:02.452Z,80.10
2017-06-10T03:19:30.525Z,77.80
2017-06-10T03:21:58.559Z,78.00
2017-06-10T03:24:26.625Z,76.90
2017-06-10T03:26:54.693Z,75.00
2017-06-10T03:29:22.755Z,75.90
2017-06-10T03:31:50.848Z,76.90
2017-06-10T03:34:18.889Z,75.80
2017-06-10T03:36:46.956Z,76.80
2017-06-10T03:39:15.043Z,76.40
2017-06-10T03:41:43.097Z,76.10
2017-06-10T03:44:11.919Z,75.30
2017-06-10T03:46:40.037Z,74.80
2017-06-10T03:49:08.112Z,73.70
2017-06-10T03:51:36.166Z,74.30
2017-06-10T03:54:04.246Z,75.40
2017-06-10T03:56:32.298Z,76.00
2017-06-10T03:59:00.353Z,76.00
2017-06-10T04:01:28.445Z,75.70
2017-06-10T04:03:56.502Z,76.30
2017-06-10T04:06:24.558Z,76.00
2017-06-10T04:08:52.635Z,75.80
2017-06-10T04:11:20.693Z,76.30
2017-06-10T04:13:48.742Z,75.20
2017-06-10T04:16:17.641Z,76.10
2017-06-10T04:18:45.695Z,76.10
2017-06-10T04:21:13.763Z,76.70
2017-06-10T04:23:41.860Z,76.00
2017-06-10T04:26:10.682Z,74.20
2017-06-10T04:28:38.733Z,74.00
2017-06-10T04:31:06.808Z,77.80
2017-06-10T04:33:34.900Z,77.00
2017-06-10T04:36:02.962Z,75.30
2017-06-10T04:38:31.019Z,73.60
2017-06-10T04:40:59.094Z,75.00
2017-06-10T04:43:27.153Z,74.20
2017-06-10T04:45:56.033Z,73.00
2017-06-10T04:48:24.867Z,74.60
2017-06-10T04:50:52.926Z,73.90
2017-06-10T04:53:21.022Z,72.10
2017-06-10T04:55:49.089Z,74.20
2017-06-10T04:58:17.138Z,74.80
2017-06-10T05:00:45.242Z,73.50
2017-06-10T05:03:12.841Z,72.90
2017-06-10T05:05:40.369Z,70.90
2017-06-10T05:08:08.371Z,72.50
2017-06-10T05:10:35.957Z,72.00
2017-06-10T05:13:03.460Z,70.40
2017-06-10T05:15:31.001Z,71.00
2017-06-10T05:17:58.526Z,70.70
2017-06-10T05:20:27.245Z,70.70
2017-06-10T05:22:55.392Z,70.80
2017-06-10T05:25:23.459Z,69.00
2017-06-10T05:27:51.509Z,69.70
2017-06-10T05:30:19.622Z,72.00
2017-06-10T05:32:47.698Z,72.50
2017-06-10T05:35:16.135Z,72.80
2017-06-10T05:37:44.994Z,71.80
2017-06-10T05:40:13.074Z,71.80
2017-06-10T05:42:41.127Z,75.70
2017-06-10T05:45:09.211Z,72.70
2017-06-10T05:47:37.290Z,72.90
2017-06-10T05:50:05.349Z,74.80
2017-06-10T05:52:33.447Z,67.90
2017-06-10T05:55:01.545Z,68.20
2017-06-10T05:57:30.370Z,67.10
2017-06-10T05:59:58.460Z,67.00
2017-06-10T06:02:26.627Z,65.50
2017-06-10T06:04:54.723Z,66.40
2017-06-10T06:07:22.827Z,66.30
2017-06-10T06:09:50.882Z,64.00
2017-06-10T06:12:19.746Z,65.20
2017-06-10T06:14:47.821Z,65.10
2017-06-10T06:17:15.874Z,65.80
2017-06-10T06:19:43.989Z,64.30
2017-06-10T06:22:12.064Z,63.50
2017-06-10T06:24:40.129Z,65.20
2017-06-10T06:27:08.198Z,59.80
2017-06-10T06:29:36.290Z,63.10
2017-06-10T06:32:04.366Z,61.60
2017-06-10T06:34:32.426Z,62.70
2017-06-10T06:37:01.265Z,61.70
2017-06-10T06:39:29.321Z,61.60
2017-06-10T06:41:57.438Z,60.50
2017-06-10T06:44:25.534Z,61.90
2017-06-10T06:46:53.688Z,61.10
2017-06-10T06:49:21.800Z,61.50
2017-06-10T06:51:49.898Z,61.10
2017-06-10T06:54:17.953Z,61.50
2017-06-10T06:56:46.034Z,61.10
2017-06-10T06:59:14.121Z,58.20
2017-06-10T07:01:42.173Z,58.80
2017-06-10T07:04:10.225Z,58.00
2017-06-10T07:06:38.424Z,60.20
2017-06-10T07:09:08.433Z,58.90
2017-06-10T07:11:37.474Z,59.00
2017-06-10T07:14:05.542Z,58.60
2017-06-10T07:16:33.609Z,60.30
2017-06-10T07:19:01.658Z,57.70
2017-06-10T07:21:29.771Z,58.10
2017-06-10T07:23:57.821Z,58.40
2017-06-10T07:26:25.889Z,59.80
2017-06-10T07:28:54.001Z,57.00
2017-06-10T07:31:22.082Z,56.80
2017-06-10T07:33:50.890Z,55.30
2017-06-10T07:36:18.974Z,55.20
2017-06-10T07:38:48.459Z,52.00
2017-06-10T07:41:17.297Z,53.00
2017-06-10T07:43:45.386Z,53.00
2017-06-10T07:46:13.447Z,52.40
2017-06-10T07:48:41.504Z,52.50
2017-06-10T07:51:09.585Z,51.40
2017-06-10T07:53:37.650Z,51.70
2017-06-10T07:56:05.733Z,53.30
2017-06-10T07:58:34.582Z,52.50
2017-06-10T08:01:03.326Z,52.40
2017-06-10T08:03:32.473Z,50.60
2017-06-10T08:06:00.562Z,50.40
2017-06-10T08:08:28.645Z,48.80
2017-06-10T08:10:56.724Z,49.10
2017-06-10T08:13:24.805Z,49.70
2017-06-10T08:15:52.882Z,49.40
2017-06-10T08:18:20.989Z,50.00
2017-06-10T08:20:49.044Z,49.30
2017-06-10T08:23:17.861Z,48.30
2017-06-10T08:25:45.960Z,48.30
2017-06-10T08:28:14.049Z,46.90
2017-06-10T08:30:42.105Z,48.20
2017-06-10T08:33:10.223Z,48.70
2017-06-10T08:35:39.110Z,47.40
2017-06-10T08:38:07.165Z,47.40
2017-06-10T08:40:35.232Z,46.60
2017-06-10T08:43:03.282Z,46.50
2017-06-10T08:45:31.330Z,45.60
2017-06-10T08:47:59.417Z,46.60
2017-06-10T08:50:27.470Z,44.30
2017-06-10T08:52:55.549Z,45.60
2017-06-10T08:55:23.630Z,46.30
2017-06-10T08:57:51.677Z,44.30
2017-06-10T09:00:19.763Z,44.60
2017-06-10T09:02:47.862Z,43.50
2017-06-10T09:05:15.909Z,44.10
2017-06-10T09:07:43.980Z,45.00
2017-06-10T09:10:13.061Z,43.40
2017-06-10T09:12:41.161Z,42.20
2017-06-10T09:15:09.246Z,42.10
2017-06-10T09:17:37.310Z,40.10
2017-06-10T09:20:05.402Z,40.50
2017-06-10T09:22:33.452Z,40.50
2017-06-10T09:25:01.515Z,38.00
2017-06-10T09:27:29.593Z,39.40
2017-06-10T09:29:57.657Z,37.00
2017-06-10T09:32:25.706Z,39.20
2017-06-10T09:34:53.776Z,39.20
2017-06-10T09:37:21.884Z,34.90
2017-06-10T09:39:49.921Z,35.70
2017-06-10T09:42:18.003Z,35.40
2017-06-10T09:44:46.120Z,35.50
2017-06-10T09:47:14.270Z,35.10
2017-06-10T09:49:42.348Z,36.10
2017-06-10T09:52:10.397Z,35.00
2017-06-10T09:54:38.531Z,33.80
2017-06-10T09:57:07.385Z,30.20
2017-06-10T09:59:35.433Z,30.00
2017-06-10T10:02:03.558Z,29.60
2017-06-10T10:04:31.670Z,30.10
2017-06-10T10:07:00.177Z,30.70
2017-06-10T10:09:28.217Z,30.20
2017-06-10T10:11:56.305Z,29.80
2017-06-10T10:14:24.409Z,29.00
2017-06-10T10:16:52.451Z,30.00
2017-06-10T10:19:20.537Z,31.40
2017-06-10T10:21:48.738Z,30.10
2017-06-10T10:24:16.821Z,30.30
2017-06-10T10:26:44.886Z,31.70
2017-06-10T10:29:12.965Z,32.80
2017-06-10T10:31:41.899Z,30.80
2017-06-10T10:34:10.746Z,29.90
2017-06-10T10:36:38.805Z,29.80
2017-06-10T10:39:06.875Z,29.30
2017-06-10T10:42:55.633Z,27.40
2017-06-10T10:45:23.701Z,28.00
2017-06-10T10:47:51.765Z,28.70
2017-06-10T10:50:19.821Z,27.70
2017-06-10T10:52:47.909Z,30.50
2017-06-10T10:55:16.353Z,27.80
2017-06-10T10:57:45.170Z,26.60
2017-06-10T11:00:13.273Z,27.50
2017-06-10T11:02:41.321Z,28.30
2017-06-10T11:05:09.369Z,29.40
2017-06-10T11:07:38.229Z,27.70
2017-06-10T11:10:07.045Z,27.80
2017-06-10T11:12:35.866Z,27.70
2017-06-10T11:15:03.941Z,26.80
2017-06-10T11:17:32.761Z,25.30
2017-06-10T11:20:01.573Z,24.50
2017-06-10T11:22:29.641Z,24.30
2017-06-10T11:24:57.729Z,23.10
2017-06-10T11:27:26.177Z,22.10
2017-06-10T11:29:55.001Z,22.80
2017-06-10T11:32:23.095Z,23.00
2017-06-10T11:34:51.200Z,21.70
2017-06-10T11:37:19.316Z,23.20
2017-06-10T11:39:47.802Z,22.90
2017-06-10T11:42:15.861Z,21.70
2017-06-10T11:44:44.307Z,22.00
2017-06-10T11:47:12.444Z,22.80
2017-06-10T11:49:40.477Z,22.60
2017-06-10T11:52:08.987Z,21.30
2017-06-10T11:54:37.459Z,22.40
2017-06-10T11:57:05.509Z,21.80
2017-06-10T11:59:34.324Z,23.80
2017-06-10T12:02:02.440Z,23.30
2017-06-10T12:04:30.586Z,25.00
2017-06-10T12:06:58.605Z,24.60
2017-06-10T12:09:27.454Z,25.50
2017-06-10T12:11:55.558Z,24.30
2017-06-10T12:14:23.712Z,25.20
2017-06-10T12:16:51.753Z,23.90
2017-06-10T12:19:19.825Z,24.70
2017-06-10T12:21:47.874Z,26.30
2017-06-10T12:24:15.989Z,25.90
2017-06-10T12:26:44.497Z,26.00
2017-06-10T12:29:12.597Z,26.00
2017-06-10T12:31:41.805Z,26.10
2017-06-10T12:34:09.881Z,26.90
2017-06-10T12:36:37.974Z,24.20
2017-06-10T12:39:06.053Z,23.50
2017-06-10T12:41:34.104Z,24.60
2017-06-10T12:44:02.160Z,24.70
2017-06-10T12:46:31.001Z,23.90
2017-06-10T12:48:59.482Z,21.90
2017-06-10T12:51:28.056Z,22.70
2017-06-10T12:53:56.124Z,20.80
2017-06-10T12:56:24.576Z,19.90
2017-06-10T12:58:52.617Z,19.60
2017-06-10T13:03:54.617Z,19.20
2017-06-10T13:06:23.111Z,19.70
2017-06-10T13:08:51.162Z,21.00
2017-06-10T13:11:19.604Z,22.70
2017-06-10T13:13:47.731Z,20.70
2017-06-10T13:16:15.799Z,20.70
2017-06-10T13:18:43.845Z,21.00
2017-06-10T13:21:12.685Z,20.30
2017-06-10T13:23:40.733Z,20.20
2017-06-10T13:26:08.793Z,20.30
2017-06-10T13:28:37.630Z,20.90
2017-06-10T13:31:05.705Z,19.80
2017-06-10T13:33:33.761Z,19.20
2017-06-10T13:36:02.201Z,18.70
2017-06-10T13:38:30.281Z,19.60
2017-06-10T13:40:58.338Z,19.70
2017-06-10T13:43:26.417Z,19.50
2017-06-10T13:45:55.250Z,21.30
2017-06-10T13:48:23.309Z,18.80
2017-06-10T13:50:51.385Z,19.10
2017-06-10T13:53:19.836Z,18.70
2017-06-10T13:55:48.646Z,20.30
2017-06-10T13:58:17.115Z,19.00
2017-06-10T14:00:45.161Z,18.20
2017-06-10T14:03:14.009Z,18.30
2017-06-10T14:05:42.452Z,17.00
2017-06-10T14:08:10.501Z,17.40
2017-06-10T14:10:39.344Z,18.60
2017-06-10T14:13:07.390Z,17.40
2017-06-10T14:15:35.833Z,18.10
2017-06-10T14:18:03.913Z,18.60
2017-06-10T14:20:32.369Z,18.60
2017-06-10T14:23:00.493Z,19.10
2017-06-10T14:25:28.579Z,18.80
2017-06-10T14:27:56.617Z,18.70
2017-06-10T14:30:24.700Z,20.30
2017-06-10T14:32:52.745Z,18.90
2017-06-10T14:35:20.804Z,18.60
2017-06-10T14:37:48.873Z,19.00
2017-06-10T14:40:16.922Z,19.10
2017-06-10T14:42:44.992Z,17.50
2017-06-10T14:45:13.085Z,16.80
2017-06-10T14:47:41.152Z,16.70
2017-06-10T14:50:09.189Z,16.80
2017-06-10T14:52:37.670Z,17.70
2017-06-10T14:55:05.719Z,16.90
2017-06-10T14:57:33.773Z,18.00
2017-06-10T15:00:01.977Z,19.00
2017-06-10T15:02:30.025Z,18.60
2017-06-10T15:04:58.841Z,19.50
2017-06-10T15:07:26.913Z,20.10
2017-06-10T15:09:55.735Z,21.60
2017-06-10T15:12:23.781Z,22.40
2017-06-10T15:14:52.649Z,20.60
2017-06-10T15:17:21.463Z,20.70
2017-06-10T15:19:49.512Z,21.10
2017-06-10T15:22:17.584Z,20.20
2017-06-10T15:24:46.065Z,20.90
2017-06-10T15:27:14.582Z,21.40
2017-06-10T15:29:42.620Z,21.90
2017-06-10T15:32:11.065Z,20.90
2017-06-10T15:34:39.145Z,21.40
2017-06-10T15:37:07.203Z,21.90
2017-06-10T15:39:35.249Z,21.30
2017-06-10T15:42:03.321Z,21.90
2017-06-10T15:44:31.775Z,21.90
2017-06-10T15:47:00.580Z,22.50
2017-06-10T15:49:28.681Z,22.10
2017-06-10T15:51:58.017Z,21.60
2017-06-10T15:54:27.201Z,21.00
2017-06-10T15:56:55.254Z,22.00
2017-06-10T15:59:23.337Z,21.60
2017-06-10T16:01:51.569Z,20.80
2017-06-10T16:04:19.617Z,22.70
2017-06-10T16:06:48.441Z,22.60
2017-06-10T16:09:16.917Z,21.20
2017-06-10T16:11:44.964Z,22.50
2017-06-10T16:14:13.037Z,23.50
2017-06-10T16:16:41.103Z,22.70
2017-06-10T16:19:09.630Z,23.30
2017-06-10T16:21:38.449Z,23.60
2017-06-10T16:24:06.494Z,22.90
2017-06-10T16:26:34.556Z,23.20
2017-06-10T16:29:02.633Z,22.70
2017-06-10T16:31:31.102Z,22.80
2017-06-10T16:33:59.153Z,23.20
2017-06-10T16:36:27.237Z,23.10
2017-06-10T16:38:55.688Z,23.20
2017-06-10T16:41:24.497Z,23.70
2017-06-10T16:43:52.581Z,24.30
2017-06-10T16:46:20.633Z,24.50
2017-06-10T16:48:48.705Z,23.80
2017-06-10T16:51:16.773Z,23.80
2017-06-10T16:53:45.619Z,24.90
2017-06-10T16:56:13.718Z,24.30
2017-06-10T16:58:42.533Z,24.50
2017-06-10T17:01:10.592Z,25.10
2017-06-10T17:03:39.424Z,25.30
2017-06-10T17:06:07.481Z,25.40
2017-06-10T17:08:35.546Z,25.30
2017-06-10T17:11:04.044Z,26.20
2017-06-10T17:13:32.091Z,25.80
2017-06-10T17:16:00.165Z,25.50
2017-06-10T17:18:29.004Z,25.70
2017-06-10T17:20:57.449Z,25.70
2017-06-10T17:23:25.537Z,26.10
2017-06-10T17:25:53.593Z,26.50
2017-06-10T17:28:21.686Z,26.80
2017-06-10T17:30:49.742Z,26.40
2017-06-10T17:33:17.827Z,27.40
2017-06-10T17:35:45.882Z,26.70
2017-06-10T17:38:14.353Z,26.90
2017-06-10T17:40:42.405Z,26.50
2017-06-10T17:43:11.221Z,27.60
2017-06-10T17:45:39.306Z,27.70
2017-06-10T17:48:07.369Z,27.90
2017-06-10T17:50:35.421Z,27.80
2017-06-10T17:53:03.530Z,27.70
2017-06-10T17:55:32.245Z,27.90
2017-06-10T17:58:00.317Z,28.20
2017-06-10T18:00:28.789Z,28.70
2017-06-10T18:02:57.637Z,29.00
2017-06-10T18:05:26.077Z,29.00
2017-06-10T18:07:54.125Z,29.00
2017-06-10T18:10:22.965Z,29.30
2017-06-10T18:12:51.013Z,29.30
2017-06-10T18:15:19.488Z,29.40
2017-06-10T18:17:47.930Z,30.60
2017-06-10T18:20:15.981Z,30.20
2017-06-10T18:22:44.457Z,30.80
2017-06-10T18:25:12.517Z,30.70
2017-06-10T18:27:40.617Z,31.80
2017-06-10T18:30:09.465Z,31.20
2017-06-10T18:32:38.013Z,31.30
2017-06-10T18:35:06.115Z,32.60
2017-06-10T18:37:34.929Z,33.40
2017-06-10T18:40:03.388Z,33.20
2017-06-10T18:42:32.226Z,36.20
2017-06-10T18:45:00.702Z,36.30
2017-06-10T18:47:28.753Z,36.50
2017-06-10T18:49:57.565Z,36.30
2017-06-10T18:52:25.645Z,36.80
2017-06-10T18:54:53.693Z,37.60
2017-06-10T18:57:21.745Z,39.10
2017-06-10T18:59:50.582Z,39.90
2017-06-10T19:02:18.629Z,38.90
2017-06-10T19:04:46.721Z,39.60
2017-06-10T19:07:14.777Z,40.40
2017-06-10T19:09:42.826Z,40.90
2017-06-10T19:12:11.662Z,41.20
2017-06-10T19:14:39.714Z,41.10
2017-06-10T19:17:07.781Z,42.00
2017-06-10T19:19:35.849Z,42.00
2017-06-10T19:22:03.965Z,42.30
2017-06-10T19:24:32.013Z,43.20
2017-06-10T19:27:00.106Z,44.00
2017-06-10T19:29:28.137Z,44.70
2017-06-10T19:31:56.185Z,45.30
2017-06-10T19:34:24.657Z,45.40
2017-06-10T19:36:53.473Z,46.30
2017-06-10T19:39:21.582Z,45.90
2017-06-10T19:41:49.637Z,46.70
2017-06-10T19:44:17.698Z,47.30
2017-06-10T19:46:45.773Z,46.50
2017-06-10T19:49:14.598Z,47.30
2017-06-10T19:51:42.649Z,47.10
2017-06-10T19:54:10.722Z,47.80
2017-06-10T19:56:38.777Z,48.30
2017-06-10T19:59:06.833Z,47.50
2017-06-10T20:01:34.913Z,48.30
2017-06-10T20:04:03.358Z,47.50
2017-06-10T20:06:31.409Z,48.60
2017-06-10T20:08:59.494Z,49.10
2017-06-10T20:11:27.561Z,48.80
2017-06-10T20:13:55.621Z,48.00
2017-06-10T20:16:24.097Z,48.10
2017-06-10T20:18:52.549Z,49.40
2017-06-10T20:21:21.047Z,49.90
2017-06-10T20:23:49.517Z,49.90
2017-06-10T20:26:18.333Z,50.40
2017-06-10T20:28:46.388Z,50.40
2017-06-10T20:31:14.867Z,50.80
2017-06-10T20:33:42.923Z,51.30
2017-06-10T20:36:10.970Z,51.20
2017-06-10T20:38:39.826Z,52.20
2017-06-10T20:41:07.881Z,50.90
2017-06-10T20:43:35.949Z,51.40
2017-06-10T20:46:04.090Z,51.90
2017-06-10T20:48:32.142Z,52.10
2017-06-10T20:51:00.968Z,52.90
2017-06-10T20:53:29.438Z,52.20
2017-06-10T20:55:57.497Z,52.10
2017-06-10T20:58:25.945Z,53.00
2017-06-10T21:00:54.054Z,53.30
2017-06-10T21:03:22.128Z,53.30
2017-06-10T21:05:50.181Z,52.80
2017-06-10T21:08:18.649Z,53.20
2017-06-10T21:10:47.129Z,53.10
2017-06-10T21:13:15.206Z,53.30
2017-06-10T21:15:43.290Z,54.10
2017-06-10T21:18:11.358Z,53.90
2017-06-10T21:20:40.181Z,53.90
2017-06-10T21:23:08.233Z,54.30
2017-06-10T21:25:36.705Z,54.20
2017-06-10T21:28:05.157Z,54.20
2017-06-10T21:30:33.223Z,54.40
2017-06-10T21:33:01.321Z,54.20
2017-06-10T21:35:30.141Z,54.70
2017-06-10T21:37:58.197Z,53.80
2017-06-10T21:40:27.033Z,54.60
2017-06-10T21:42:55.086Z,56.80
2017-06-10T21:45:23.177Z,55.70
2017-06-10T21:47:51.266Z,55.50
2017-06-10T21:50:19.793Z,55.50
2017-06-10T21:52:47.882Z,55.60
2017-06-10T21:55:15.946Z,56.10
2017-06-10T21:57:44.087Z,56.60
2017-06-10T22:00:12.168Z,57.30
2017-06-10T22:02:40.990Z,57.00
2017-06-10T22:05:09.070Z,56.90
2017-06-10T22:07:37.190Z,56.40
2017-06-10T22:10:05.296Z,56.70
2017-06-10T22:12:33.394Z,56.70
2017-06-10T22:15:01.485Z,57.00
2017-06-10T22:17:29.554Z,57.10
2017-06-10T22:19:57.623Z,57.10
2017-06-10T22:22:25.686Z,57.30
2017-06-10T22:24:53.787Z,57.30
2017-06-10T22:27:21.875Z,57.60
2017-06-10T22:29:50.696Z,58.80
2017-06-10T22:32:18.745Z,58.00
2017-06-10T22:34:47.606Z,57.80
2017-06-10T22:37:15.677Z,57.60
2017-06-10T22:39:43.735Z,58.00
2017-06-10T22:42:11.814Z,57.90
2017-06-10T22:44:39.871Z,58.80
2017-06-10T22:47:07.950Z,58.60
2017-06-10T22:49:36.006Z,58.40
2017-06-10T22:52:04.850Z,57.80
2017-06-10T22:54:32.898Z,58.20
2017-06-10T22:57:00.992Z,58.30
2017-06-10T22:59:29.049Z,57.50
2017-06-10T23:01:57.502Z,58.00
2017-06-10T23:04:26.361Z,57.70
2017-06-10T23:06:54.593Z,57.60
2017-06-10T23:09:22.619Z,58.10
2017-06-10T23:11:51.093Z,58.40
2017-06-10T23:14:19.186Z,58.90
2017-06-10T23:16:47.282Z,59.10
2017-06-10T23:19:15.343Z,58.70
2017-06-10T23:21:43.464Z,58.70
2017-06-10T23:24:11.543Z,59.10
2017-06-10T23:26:40.036Z,59.30
2017-06-10T23:29:08.142Z,59.10
2017-06-10T23:31:36.206Z,58.70
2017-06-10T23:34:04.280Z,58.40
2017-06-10T23:36:33.116Z,58.30
2017-06-10T23:39:01.961Z,59.00
2017-06-10T23:41:30.030Z,59.00
2017-06-10T23:43:58.171Z,59.20
2017-06-10T23:46:26.203Z,58.90
2017-06-10T23:48:54.286Z,59.00
2017-06-10T23:51:22.394Z,59.20
2017-06-10T23:53:50.464Z,59.50
2017-06-10T23:56:18.528Z,60.20
2017-06-10T23:58:46.644Z,60.30
